Terminal Aerodrome Forecast
Issued by NWS

Home | Current Version | Previous Version | Text Only | Print | Product List | Glossary On
Versions: 1 2 3 4 5 6 7 8 9 10 11 12 13 14
977
FTUS44 KTSA 261120
TAFRVS
TAF
KRVS 261120Z 2612/2712 17005KT P6SM OVC150
     FM261700 17010KT P6SM OVC100
     FM270000 12003KT P6SM OVC050
     FM270900 00000KT P6SM OVC025=

USA.gov is the U.S. government's official web portal to all federal, state and local government web resources and services.